La Paz, Honduras
Current Conditions -  °F | °C
As of 1:00 PM on Friday 24 Oct 2014 (Local Time) from MHTG Reporting Station
Broken Clouds Broken Clouds  
Wind Chill: 29°   Ceiling: 3000
Heat Index: 29°   Visibility: 6mi
Dew Point: 16°   Wind: 5mph
Humidity: 45%   Direction: 360°N
Pressure: 29.97"   Gusts: NA
Location:  14.2°N, 87.4°W
Report Text: MHTG 241900Z 36004KT 9999 BKN030CB SCT230 29/16 Q1015 A2997 NOSIG
Loading
Personal Weather Stations






























Interactive Weather Map
Tropical Storm Tracking
New forecast layout! Learn more

10-Day Weather Forecast

Advertisements
Track Severe Weather on mobile